sensor_id;sensor_type;location;lat;lon;timestamp;pressure;altitude;pressure_sealevel;temperature;humidity
55014;BME280;40916;51.632;5.552;2022-10-31T00:01:46;1016.6045479880722;;;12.949142209011395;0
55014;BME280;40916;51.632;5.552;2022-10-31T00:02:46;1016.5548426906747;;;12.935803708887033;0
55014;BME280;40916;51.632;5.552;2022-10-31T00:03:46;1016.5852445380617;;;12.942473152343368;0
55014;BME280;40916;51.632;5.552;2022-10-31T00:04:46;1016.5807365516799;;;12.935803708887033;0
55014;BME280;40916;51.632;5.552;2022-10-31T00:05:47;1016.5873243140229;;;12.929133878524844;0
55014;BME280;40916;51.632;5.552;2022-10-31T00:06:47;1016.6530945770442;;;12.922463661139204;0
55014;BME280;40916;51.632;5.552;2022-10-31T00:07:47;1016.702807690241;;;12.935803708887033;0
55014;BME280;40916;51.632;5.552;2022-10-31T00:08:47;1016.6276339881002;;;12.895778919008556;0
55014;BME280;40916;51.632;5.552;2022-10-31T00:09:47;1016.6025609654577;;;12.90245068566491;0
55014;BME280;40916;51.632;5.552;2022-10-31T00:10:47;1016.6416084439701;;;12.88910676474006;0
55014;BME280;40916;51.632;5.552;2022-10-31T00:11:47;1016.6658527181803;;;12.87576129289506;0
55014;BME280;40916;51.632;5.552;2022-10-31T00:12:47;1016.7509215637015;;;12.87576129289506;0
55014;BME280;40916;51.632;5.552;2022-10-31T00:13:47;1016.696656812289;;;12.855740175087874;0
55014;BME280;40916;51.632;5.552;2022-10-31T00:14:47;1016.7583188576284;;;12.87576129289506;0
55014;BME280;40916;51.632;5.552;2022-10-31T00:15:47;1016.6958257651207;;;12.84906569266932;0
55014;BME280;40916;51.632;5.552;2022-10-31T00:16:48;1016.6921273344839;;;12.84906569266932;0
55014;BME280;40916;51.632;5.552;2022-10-31T00:17:48;1016.6986915221518;;;12.842390821812444;0
55014;BME280;40916;51.632;5.552;2022-10-31T00:18:48;1016.7200472187246;;;12.835715562399027;0
55014;BME280;40916;51.632;5.552;2022-10-31T00:19:48;1016.7072787092807;;;12.822363877429467;0
55014;BME280;40916;51.632;5.552;2022-10-31T00:20:48;1016.7590537545128;;;12.822363877429467;0
55014;BME280;40916;51.632;5.552;2022-10-31T00:21:50;1016.75938278526;;;12.795655839605004;0
55014;BME280;40916;51.632;5.552;2022-10-31T00:22:48;1016.7818729126793;;;12.768941571613126;0
55014;BME280;40916;51.632;5.552;2022-10-31T00:23:48;1016.7155930069056;;;12.742221065858708;0
55014;BME280;40916;51.632;5.552;2022-10-31T00:24:48;1016.713248805667;;;12.695445148283525;0
55014;BME280;40916;51.632;5.552;2022-10-31T00:25:49;1016.7032416904788;;;12.675392461307027;0
55014;BME280;40916;51.632;5.552;2022-10-31T00:26:49;1016.6997359118119;;;12.648650063393564;0
55014;BME280;40916;51.632;5.552;2022-10-31T00:27:49;1016.7627437384688;;;12.621901393386295;0
55014;BME280;40916;51.632;5.552;2022-10-31T00:28:49;1016.7472003201013;;;12.588456724069445;0
55014;BME280;40916;51.632;5.552;2022-10-31T00:29:49;1016.7592938414849;;;12.568385206424384;0
55014;BME280;40916;51.632;5.552;2022-10-31T00:30:49;1016.792642137543;;;12.541617674105517;0
55014;BME280;40916;51.632;5.552;2022-10-31T00:31:49;1016.7233908654172;;;12.521537889060845;0
55014;BME280;40916;51.632;5.552;2022-10-31T00:32:49;1016.779782906574;;;12.501454555425418;0
55014;BME280;40916;51.632;5.552;2022-10-31T00:33:49;1016.6633862125026;;;12.488063693287383;0
55014;BME280;40916;51.632;5.552;2022-10-31T00:34:50;1016.680023756606;;;12.447881625613125;0
55014;BME280;40916;51.632;5.552;2022-10-31T00:35:50;1016.6144186146589;;;12.427785252578719;0
55014;BME280;40916;51.632;5.552;2022-10-31T00:36:50;1016.7575913434849;;;12.42108566976755;0
55014;BME280;40916;51.632;5.552;2022-10-31T00:37:50;1016.744633577499;;;12.407685315718005;0
55014;BME280;40916;51.632;5.552;2022-10-31T00:38:50;1016.7593422321995;;;12.38087985051093;0
55014;BME280;40916;51.632;5.552;2022-10-31T00:39:50;1016.7417230599806;;;12.360771585308147;0
55014;BME280;40916;51.632;5.552;2022-10-31T00:40:50;1016.6945359909807;;;12.340659745343078;0
55014;BME280;40916;51.632;5.552;2022-10-31T00:41:50;1016.7277851391589;;;12.340659745343078;0
55014;BME280;40916;51.632;5.552;2022-10-31T00:42:50;1016.7165686174995;;;12.313838392295484;0
55014;BME280;40916;51.632;5.552;2022-10-31T00:43:51;1016.6598448439609;;;12.253467050133455;0
55014;BME280;40916;51.632;5.552;2022-10-31T00:44:51;1016.6623420927688;;;12.21991345104869;0
55014;BME280;40916;51.632;5.552;2022-10-31T00:45:51;1016.6453418390241;;;12.179635938588682;0
55014;BME280;40916;51.632;5.552;2022-10-31T00:46:51;1016.6699064526789;;;12.1460603322058;0
55014;BME280;40916;51.632;5.552;2022-10-31T00:47:51;1016.6628670188701;;;12.099037632865684;0
55014;BME280;40916;51.632;5.552;2022-10-31T00:48:51;1016.6208690679075;;;12.065437933474797;0
55014;BME280;40916;51.632;5.552;2022-10-31T00:49:51;1016.6073434911058;;;12.025105006980983;0
55014;BME280;40916;51.632;5.552;2022-10-31T00:50:51;1016.592142151401;;;11.998208324043556;0
55014;BME280;40916;51.632;5.552;2022-10-31T00:51:51;1016.5563745411274;;;11.957851181823973;0
55014;BME280;40916;51.632;5.552;2022-10-31T00:52:52;1016.5901463556587;;;11.937667150407567;0
55014;BME280;40916;51.632;5.552;2022-10-31T00:53:52;1016.4820508580049;;;11.883825238935263;0
55014;BME280;40916;51.632;5.552;2022-10-31T00:54:52;1016.5563615540486;;;11.863627827110765;0
55014;BME280;40916;51.632;5.552;2022-10-31T00:55:52;1016.521484498036;;;11.829957345515663;0
55014;BME280;40916;51.632;5.552;2022-10-31T00:56:52;1016.5614532068895;;;11.80301363549357;0
55014;BME280;40916;51.632;5.552;2022-10-31T00:57:52;1016.5608026988454;;;11.776063405859688;0
55014;BME280;40916;51.632;5.552;2022-10-31T00:58:52;1016.541677667719;;;11.749106648544704;0
55014;BME280;40916;51.632;5.552;2022-10-31T00:59:52;1016.5483539101231;;;11.722143355465985;0
55014;BME280;40916;51.632;5.552;2022-10-31T01:00:53;1016.5634884336621;;;11.70191659169226;0
55014;BME280;40916;51.632;5.552;2022-10-31T01:01:53;1016.6398535344651;;;11.695173518527554;0
55014;BME280;40916;51.632;5.552;2022-10-31T01:02:53;1016.5863306561408;;;11.661452007696411;0
55014;BME280;40916;51.632;5.552;2022-10-31T01:03:53;1016.586661514821;;;11.641214180620704;0
55014;BME280;40916;51.632;5.552;2022-10-31T01:04:53;1016.6902573310533;;;11.620972658917008;0
55014;BME280;40916;51.632;5.552;2022-10-31T01:05:55;1016.6871462840099;;;11.580478517871668;0
55014;BME280;40916;51.632;5.552;2022-10-31T01:06:53;1016.6680750427198;;;11.533216620778994;0
55014;BME280;40916;51.632;5.552;2022-10-31T01:07:53;1016.6413378032944;;;11.506200749007917;0
55014;BME280;40916;51.632;5.552;2022-10-31T01:08:53;1016.6724120353086;;;11.472421614268391;0
55014;BME280;40916;51.632;5.552;2022-10-31T01:09:53;1016.7193608503461;;;11.445390860439222;0
55014;BME280;40916;51.632;5.552;2022-10-31T01:11:01;1016.6839853733275;;;11.411593097096244;0
55014;BME280;40916;51.632;5.552;2022-10-31T01:11:54;1016.651071093349;;;11.371022088928367;0
55014;BME280;40916;51.632;5.552;2022-10-31T01:12:54;1016.7150454804151;;;11.357495095751009;0
55014;BME280;40916;51.632;5.552;2022-10-31T01:13:54;1016.7875792411443;;;11.350730975370016;0
55014;BME280;40916;51.632;5.552;2022-10-31T01:14:54;1016.697998288654;;;11.323670332208504;0
55014;BME280;40916;51.632;5.552;2022-10-31T01:15:54;1016.625556045161;;;11.310137511830256;0
55014;BME280;40916;51.632;5.552;2022-10-31T01:16:54;1016.5887633847091;;;11.289835154846077;0
55014;BME280;40916;51.632;5.552;2022-10-31T01:17:54;1016.5642720597465;;;11.255989547430055;0
55014;BME280;40916;51.632;5.552;2022-10-31T01:18:55;1016.5053487191137;;;11.21536102795313;0
55014;BME280;40916;51.632;5.552;2022-10-31T01:19:54;1016.5028939659653;;;11.201814840436722;0
55014;BME280;40916;51.632;5.552;2022-10-31T01:20:58;1016.38617997376;;;11.167942038665192;0
55014;BME280;40916;51.632;5.552;2022-10-31T01:22:55;1016.3112141718891;;;11.140836246116177;0
55014;BME280;40916;51.632;5.552;2022-10-31T01:23:55;1016.4315082074563;;;11.113723732362029;0
55014;BME280;40916;51.632;5.552;2022-10-31T01:24:55;1016.4031325332018;;;11.079823625670677;0
55014;BME280;40916;51.632;5.552;2022-10-31T01:25:59;1016.4717676719459;;;11.05269595845736;0
55014;BME280;40916;51.632;5.552;2022-10-31T01:26:55;1016.3906023272987;;;11.032345779761023;0
55014;BME280;40916;51.632;5.552;2022-10-31T01:27:55;1016.3277020412584;;;10.99163401989971;0
55014;BME280;40916;51.632;5.552;2022-10-31T01:28:56;1016.3080051005177;;;10.984847246949194;0
55014;BME280;40916;51.632;5.552;2022-10-31T01:29:55;1016.310237353755;;;10.957695922748453;0
55014;BME280;40916;51.632;5.552;2022-10-31T01:30:59;1016.3074642292836;;;10.92374723465327;0
55014;BME280;40916;51.632;5.552;2022-10-31T01:31:56;1016.3011870632049;;;10.910164790233;0
55014;BME280;40916;51.632;5.552;2022-10-31T01:32:56;1016.3845920314388;;;10.903372931237687;0
55014;BME280;40916;51.632;5.552;2022-10-31T01:33:56;1016.340170225582;;;10.88299480551365;0
55014;BME280;40916;51.632;5.552;2022-10-31T01:34:56;1016.2981078633779;;;10.855818019184543;0
55014;BME280;40916;51.632;5.552;2022-10-31T01:35:56;1016.3754388242515;;;10.855818019184543;0
55014;BME280;40916;51.632;5.552;2022-10-31T01:36:56;1016.3651681473108;;;10.821837458500802;0
55014;BME280;40916;51.632;5.552;2022-10-31T01:37:56;1016.4053788750351;;;10.801444007530332;0
55014;BME280;40916;51.632;5.552;2022-10-31T01:38:57;1016.3669190900121;;;10.774246765086101;0
55014;BME280;40916;51.632;5.552;2022-10-31T01:39:56;1016.4184639341871;;;10.774246765086101;0
55014;BME280;40916;51.632;5.552;2022-10-31T01:40:56;1016.4147821588272;;;10.774246765086101;0
55014;BME280;40916;51.632;5.552;2022-10-31T01:41:56;1016.4740073056521;;;10.794645337310506;0
55014;BME280;40916;51.632;5.552;2022-10-31T01:42:56;1016.4445517834935;;;10.794645337310506;0
55014;BME280;40916;51.632;5.552;2022-10-31T01:43:57;1016.5114169000077;;;10.83543096074564;0
55014;BME280;40916;51.632;5.552;2022-10-31T01:44:58;1016.4517132048219;;;10.869407263083612;0
55014;BME280;40916;51.632;5.552;2022-10-31T01:45:57;1016.4519565735192;;;10.8897879390112;0
55014;BME280;40916;51.632;5.552;2022-10-31T01:46:58;1016.5310367884814;;;10.937327981866428;0
55014;BME280;40916;51.632;5.552;2022-10-31T01:47:57;1016.462351673266;;;10.94411771935264;0
55014;BME280;40916;51.632;5.552;2022-10-31T01:48:57;1016.4516601414488;;;10.984847246949194;0
55014;BME280;40916;51.632;5.552;2022-10-31T01:49:58;1016.4886522409611;;;11.005206297008382;0
55014;BME280;40916;51.632;5.552;2022-10-31T01:50:57;1016.5033867593378;;;11.005206297008382;0
55014;BME280;40916;51.632;5.552;2022-10-31T01:51:58;1016.5637431169739;;;11.032345779761023;0
55014;BME280;40916;51.632;5.552;2022-10-31T01:52:58;1016.4727857801093;;;11.018776883276171;0
55014;BME280;40916;51.632;5.552;2022-10-31T01:54:01;1016.4948882081585;;;11.018776883276171;0
55014;BME280;40916;51.632;5.552;2022-10-31T01:54:58;1016.4726393148347;;;10.998420369875312;0
55014;BME280;40916;51.632;5.552;2022-10-31T01:55:58;1016.4984243387477;;;10.998420369875312;0
55014;BME280;40916;51.632;5.552;2022-10-31T01:56:58;1016.4934603512986;;;10.99163401989971;0
55014;BME280;40916;51.632;5.552;2022-10-31T01:57:58;1016.5216459964606;;;10.984847246949194;0
55014;BME280;40916;51.632;5.552;2022-10-31T01:58:58;1016.4934603512986;;;10.99163401989971;0
55014;BME280;40916;51.632;5.552;2022-10-31T01:59:59;1016.510421754799;;;10.964484388923534;0
55014;BME280;40916;51.632;5.552;2022-10-31T02:00:59;1016.5166783829162;;;10.97806005089133;0
55014;BME280;40916;51.632;5.552;2022-10-31T02:01:58;1016.4662221206905;;;10.964484388923534;0
55014;BME280;40916;51.632;5.552;2022-10-31T02:02:58;1016.4699054228757;;;10.964484388923534;0
55014;BME280;40916;51.632;5.552;2022-10-31T02:03:59;1016.5459651272622;;;10.957695922748453;0
55014;BME280;40916;51.632;5.552;2022-10-31T02:04:58;1016.5297405672083;;;10.930537820344263;0
55014;BME280;40916;51.632;5.552;2022-10-31T02:05:59;1016.496378877898;;;10.910164790233;0
55014;BME280;40916;51.632;5.552;2022-10-31T02:07:00;1016.5179989330433;;;10.869407263083612;0
55014;BME280;40916;51.632;5.552;2022-10-31T02:07:59;1016.4806377272131;;;10.82863442270757;0
55014;BME280;40916;51.632;5.552;2022-10-31T02:08:59;1016.4827007548797;;;10.801444007530332;0
55014;BME280;40916;51.632;5.552;2022-10-31T02:09:59;1016.459971352217;;;10.760645580957835;0
55014;BME280;40916;51.632;5.552;2022-10-31T02:10:59;1016.4445464158805;;;10.71983176405794;0
55014;BME280;40916;51.632;5.552;2022-10-31T02:11:59;1016.4240213377471;;;10.67219615392284;0
55014;BME280;40916;51.632;5.552;2022-10-31T02:13:00;1016.4245596783464;;;10.638157843017968;0
55014;BME280;40916;51.632;5.552;2022-10-31T02:13:59;1016.4595554087889;;;10.610919456264433;0
55014;BME280;40916;51.632;5.552;2022-10-31T02:14:59;1016.365710479399;;;10.583674181873146;0
55014;BME280;40916;51.632;5.552;2022-10-31T02:15:59;1016.389609755107;;;10.556422011161679;0
55014;BME280;40916;51.632;5.552;2022-10-31T02:17:00;1016.3348062808199;;;10.522347086571319;0
55014;BME280;40916;51.632;5.552;2022-10-31T02:18:00;1016.3803600173164;;;10.529162935433003;0
55014;BME280;40916;51.632;5.552;2022-10-31T02:19:01;1016.3334085476934;;;10.515530805465392;0
55014;BME280;40916;51.632;5.552;2022-10-31T02:20:05;1016.3122100219067;;;10.501896945975464;0
55014;BME280;40916;51.632;5.552;2022-10-31T02:21:04;1016.2790937264863;;;10.501896945975464;0
55014;BME280;40916;51.632;5.552;2022-10-31T02:22:02;1016.2946852512027;;;10.488261355871973;0
55014;BME280;40916;51.632;5.552;2022-10-31T02:23:11;1016.233002111874;;;10.47462403406275;0
55014;BME280;40916;51.632;5.552;2022-10-31T02:24:39;1016.322165291771;;;10.460984979454707;0
55014;BME280;40916;51.632;5.552;2022-10-31T02:25:12;1016.3082999545283;;;10.447344190953846;0
55014;BME280;40916;51.632;5.552;2022-10-31T02:26:07;1016.2695139531323;;;10.420057407893026;0
55014;BME280;40916;51.632;5.552;2022-10-31T02:27:03;1016.246237768688;;;10.379114201702475;0
55014;BME280;40916;51.632;5.552;2022-10-31T02:28:05;1016.2905535808561;;;10.344982898693093;0
55014;BME280;40916;51.632;5.552;2022-10-31T02:29:21;1016.3252342450113;;;10.317670012579647;0
55014;BME280;40916;51.632;5.552;2022-10-31T02:30:03;1016.3053944210645;;;10.310840700498936;0
55014;BME280;40916;51.632;5.552;2022-10-31T02:32:02;1016.2885466919338;;;10.283519085825109;0
55014;BME280;40916;51.632;5.552;2022-10-31T02:33:05;1016.3179694001777;;;10.283519085825109;0
55014;BME280;40916;51.632;5.552;2022-10-31T02:34:02;1016.3290029177349;;;10.283519085825109;0
55014;BME280;40916;51.632;5.552;2022-10-31T02:35:03;1016.3158042164458;;;10.256190478354064;0
55014;BME280;40916;51.632;5.552;2022-10-31T02:36:03;1016.3636132857947;;;10.256190478354064;0
55014;BME280;40916;51.632;5.552;2022-10-31T02:37:04;1016.2944848364851;;;10.242523549551525;0
55014;BME280;40916;51.632;5.552;2022-10-31T02:38:02;1016.357721980521;;;10.26302328628082;0
55014;BME280;40916;51.632;5.552;2022-10-31T02:39:02;1016.2488523264017;;;10.269855656742614;0
55014;BME280;40916;51.632;5.552;2022-10-31T02:40:04;1016.2738353406709;;;10.283519085825109;0
55014;BME280;40916;51.632;5.552;2022-10-31T02:41:04;1016.2818754290698;;;10.304010951921267;0
55014;BME280;40916;51.632;5.552;2022-10-31T02:42:03;1016.3148594453514;;;10.338155331220268;0
55014;BME280;40916;51.632;5.552;2022-10-31T02:43:03;1016.3214210231877;;;10.351810030358646;0
55014;BME280;40916;51.632;5.552;2022-10-31T02:44:04;1016.2412939344521;;;10.338155331220268;0
55014;BME280;40916;51.632;5.552;2022-10-31T02:45:04;1016.3163018984203;;;10.344982898693093;0
55014;BME280;40916;51.632;5.552;2022-10-31T02:46:03;1016.329572553251;;;10.338155331220268;0
55014;BME280;40916;51.632;5.552;2022-10-31T02:47:03;1016.298038306222;;;10.310840700498936;0
55014;BME280;40916;51.632;5.552;2022-10-31T02:48:03;1016.3003405199781;;;10.269855656742614;0
55014;BME280;40916;51.632;5.552;2022-10-31T02:49:03;1016.3194937729284;;;10.222019871895604;0
55014;BME280;40916;51.632;5.552;2022-10-31T02:50:03;1016.2797251123128;;;10.174162610486121;0
55014;BME280;40916;51.632;5.552;2022-10-31T02:51:03;1016.252261091285;;;10.098914836372039;0
55014;BME280;40916;51.632;5.552;2022-10-31T02:52:12;1016.233694085387;;;10.064693681632555;0
55014;BME280;40916;51.632;5.552;2022-10-31T02:53:03;1016.3011498614721;;;10.037308811574253;0
55014;BME280;40916;51.632;5.552;2022-10-31T02:55:11;1016.2350079559995;;;9.955111726946658;0
55014;BME280;40916;51.632;5.552;2022-10-31T02:56:04;1016.2414050761054;;;9.934552480778859;0
55014;BME280;40916;51.632;5.552;2022-10-31T02:57:04;1016.2220614219439;;;9.913989236986868;0
55014;BME280;40916;51.632;5.552;2022-10-31T02:58:04;1016.2777533147446;;;9.900278185004446;0
55014;BME280;40916;51.632;5.552;2022-10-31T02:59:03;1016.2515850531598;;;9.865992767031084;0
55014;BME280;40916;51.632;5.552;2022-10-31T03:00:04;1016.238449239325;;;9.872850741251831;0
55014;BME280;40916;51.632;5.552;2022-10-31T03:01:07;1016.2908964892621;;;9.89342199175228;0
55014;BME280;40916;51.632;5.552;2022-10-31T03:02:06;1016.2446804154368;;;9.900278185004446;0
55014;BME280;40916;51.632;5.552;2022-10-31T03:03:04;1016.22998135217;;;9.900278185004446;0
55014;BME280;40916;51.632;5.552;2022-10-31T03:04:09;1016.1969084667769;;;9.900278185004446;0
55014;BME280;40916;51.632;5.552;2022-10-31T03:05:11;1016.2887776166544;;;9.900278185004446;0
55014;BME280;40916;51.632;5.552;2022-10-31T03:06:06;1016.3023335372388;;;9.927698510550456;0
55014;BME280;40916;51.632;5.552;2022-10-31T03:07:07;1016.3133585005276;;;9.927698510550456;0
55014;BME280;40916;51.632;5.552;2022-10-31T03:08:06;1016.2876335878525;;;9.927698510550456;0
55014;BME280;40916;51.632;5.552;2022-10-31T03:09:07;1016.2814280819289;;;9.900278185004446;0
55014;BME280;40916;51.632;5.552;2022-10-31T03:10:06;1016.276197639709;;;9.89342199175228;0
55014;BME280;40916;51.632;5.552;2022-10-31T03:11:05;1016.2856641944708;;;9.886565353470615;0
55014;BME280;40916;51.632;5.552;2022-10-31T03:12:06;1016.2326604455352;;;9.879708270017726;0
55014;BME280;40916;51.632;5.552;2022-10-31T03:13:06;1016.3050310055349;;;9.907133933368776;0
55014;BME280;40916;51.632;5.552;2022-10-31T03:14:06;1016.3526145774588;;;9.955111726946658;0
55014;BME280;40916;51.632;5.552;2022-10-31T03:15:07;1016.2974864584827;;;9.955111726946658;0
55014;BME280;40916;51.632;5.552;2022-10-31T03:16:06;1016.2558559883372;;;9.982517843234497;0
55014;BME280;40916;51.632;5.552;2022-10-31T03:17:05;1016.3906230584686;;;10.009916868440087;0
55014;BME280;40916;51.632;5.552;2022-10-31T03:18:06;1016.3458913462051;;;10.023613724703516;0
55014;BME280;40916;51.632;5.552;2022-10-31T03:19:05;1016.3673154630281;;;10.037308811574253;0
55014;BME280;40916;51.632;5.552;2022-10-31T03:20:06;1016.3318126877402;;;10.009916868440087;0
55014;BME280;40916;51.632;5.552;2022-10-31T03:21:06;1016.4194065181827;;;10.023613724703516;0
55014;BME280;40916;51.632;5.552;2022-10-31T03:22:06;1016.3354883350183;;;10.009916868440087;0
55014;BME280;40916;51.632;5.552;2022-10-31T03:23:06;1016.3933812965249;;;9.989368263972608;0
55014;BME280;40916;51.632;5.552;2022-10-31T03:24:06;1016.4096162115374;;;9.996218241659037;0
55014;BME280;40916;51.632;5.552;2022-10-31T03:25:06;1016.3667206917294;;;9.968815672039632;0
55014;BME280;40916;51.632;5.552;2022-10-31T03:26:06;1016.3841482808111;;;9.948259088835687;0
55014;BME280;40916;51.632;5.552;2022-10-31T03:27:06;1016.443532484631;;;9.934552480778859;0
55014;BME280;40916;51.632;5.552;2022-10-31T03:28:06;1016.3349930493382;;;9.89342199175228;0
55014;BME280;40916;51.632;5.552;2022-10-31T03:29:06;1016.3607916558734;;;9.845416170220414;0
55014;BME280;40916;51.632;5.552;2022-10-31T03:30:06;1016.3812662549813;;;9.838556412760635;0
55014;BME280;40916;51.632;5.552;2022-10-31T03:31:06;1016.4148599135038;;;9.824835559203958;0
55014;BME280;40916;51.632;5.552;2022-10-31T03:32:07;1016.4363804089527;;;9.838556412760635;0
55014;BME280;40916;51.632;5.552;2022-10-31T03:33:07;1016.4122322921103;;;9.845416170220414;0
55014;BME280;40916;51.632;5.552;2022-10-31T03:34:06;1016.3418818905599;;;9.859134347213587;0
55014;BME280;40916;51.632;5.552;2022-10-31T03:35:07;1016.3759699704248;;;9.879708270017726;0
55014;BME280;40916;51.632;5.552;2022-10-31T03:36:07;1016.3197302982009;;;9.907133933368776;0
55014;BME280;40916;51.632;5.552;2022-10-31T03:37:07;1016.3071514555497;;;9.900278185004446;0
55014;BME280;40916;51.632;5.552;2022-10-31T03:38:07;1016.3648083433625;;;9.927698510550456;0
55014;BME280;40916;51.632;5.552;2022-10-31T03:39:08;1016.2183865468423;;;9.913989236986868;0
55014;BME280;40916;51.632;5.552;2022-10-31T03:40:07;1016.3139333381362;;;9.913989236986868;0
55014;BME280;40916;51.632;5.552;2022-10-31T03:41:07;1016.3139333381362;;;9.913989236986868;0
55014;BME280;40916;51.632;5.552;2022-10-31T03:42:08;1016.3270799452474;;;9.907133933368776;0
55014;BME280;40916;51.632;5.552;2022-10-31T03:43:08;1016.3077121417876;;;9.886565353470615;0
55014;BME280;40916;51.632;5.552;2022-10-31T03:44:08;1016.2579104533132;;;9.845416170220414;0
55014;BME280;40916;51.632;5.552;2022-10-31T03:45:09;1016.3434746294039;;;9.81797446282259;0
55014;BME280;40916;51.632;5.552;2022-10-31T03:46:08;1016.3298048617879;;;9.790525609955282;0
55014;BME280;40916;51.632;5.552;2022-10-31T03:47:08;1016.300917143197;;;9.776798501121625;0
55014;BME280;40916;51.632;5.552;2022-10-31T03:48:08;1016.3450024966346;;;9.776798501121625;0
55014;BME280;40916;51.632;5.552;2022-10-31T03:49:08;1016.3303073769201;;;9.776798501121625;0
55014;BME280;40916;51.632;5.552;2022-10-31T03:50:08;1016.3748867192049;;;9.763069602499932;0
55014;BME280;40916;51.632;5.552;2022-10-31T03:51:10;1016.2991851669393;;;9.721872156479275;0
55014;BME280;40916;51.632;5.552;2022-10-31T03:52:10;1016.2959793175892;;;9.708136087273228;0
55014;BME280;40916;51.632;5.552;2022-10-31T03:53:09;1016.2339965727414;;;9.694398222558181;0
55014;BME280;40916;51.632;5.552;2022-10-31T03:54:09;1016.270727744305;;;9.694398222558181;0
55014;BME280;40916;51.632;5.552;2022-10-31T03:55:10;1016.3772482090338;;;9.694398222558181;0
55014;BME280;40916;51.632;5.552;2022-10-31T03:56:09;1016.3074589277509;;;9.694398222558181;0
55014;BME280;40916;51.632;5.552;2022-10-31T03:57:11;1016.2654459480071;;;9.687528616526347;0
55014;BME280;40916;51.632;5.552;2022-10-31T03:58:09;1016.3719648121294;;;9.687528616526347;0
55014;BME280;40916;51.632;5.552;2022-10-31T03:59:09;1016.3226036491924;;;9.680658561187016;0
55014;BME280;40916;51.632;5.552;2022-10-31T04:00:10;1016.3230486514501;;;9.666917102011638;0
55014;BME280;40916;51.632;5.552;2022-10-31T04:01:09;1016.2904313091045;;;9.653173843882975;0
55014;BME280;40916;51.632;5.552;2022-10-31T04:02:10;1016.3292116690706;;;9.646301539851809;0
55014;BME280;40916;51.632;5.552;2022-10-31T04:03:10;1016.2247546195343;;;9.639428785650974;0
55014;BME280;40916;51.632;5.552;2022-10-31T04:04:09;1016.3496256719199;;;9.639428785650974;0
55014;BME280;40916;51.632;5.552;2022-10-31T04:05:09;1016.3296383847883;;;9.632555581136565;0
55014;BME280;40916;51.632;5.552;2022-10-31T04:06:10;1016.2917040397996;;;9.611933264271855;0
55014;BME280;40916;51.632;5.552;2022-10-31T04:07:10;1016.2574291333674;;;9.591306889398307;0
55014;BME280;40916;51.632;5.552;2022-10-31T04:08:10;1016.2484493899987;;;9.58443052865423;0
55014;BME280;40916;51.632;5.552;2022-10-31T04:09:10;1016.2688455571363;;;9.577553716443088;0
55014;BME280;40916;51.632;5.552;2022-10-31T04:10:11;1016.2068126350811;;;9.563798737041687;0
55014;BME280;40916;51.632;5.552;2022-10-31T04:11:10;1016.2231410302855;;;9.570676452620415;0
55014;BME280;40916;51.632;5.552;2022-10-31T04:12:10;1016.2532890430215;;;9.543162878323017;0
55014;BME280;40916;51.632;5.552;2022-10-31T04:13:11;1016.3034167066398;;;9.522522948591053;0
55014;BME280;40916;51.632;5.552;2022-10-31T04:14:10;1016.258415167678;;;9.488114008380318;0
55014;BME280;40916;51.632;5.552;2022-10-31T04:15:10;1016.3288522158105;;;9.460578694168614;0
55014;BME280;40916;51.632;5.552;2022-10-31T04:16:10;1016.3227813684143;;;9.405486260729347;0
55014;BME280;40916;51.632;5.552;2022-10-31T04:17:11;1016.3640335618601;;;9.364147819512642;0
55014;BME280;40916;51.632;5.552;2022-10-31T04:18:11;1016.3376950956286;;;9.30210935964049;0
55014;BME280;40916;51.632;5.552;2022-10-31T04:19:11;1016.3109960609839;;;9.253831612959399;0